Time;durP1;ratioP1;P1;durP2;ratioP2;P2;SDS_P1;SDS_P2;PMS_P1;PMS_P2;Temp;Humidity;BMP_temperature;BMP_pressure;BME280_temperature;BME280_humidity;BME280_pressure;Samples;Min_cycle;Max_cycle;Signal;HPM_P1;HPM_P2
2023/11/23 00:00:56;;;;;;;;;;;;;;;4.24;100.00;97824.84;110265;1241;59677;-65
2023/11/23 00:03:38;;;;;;;23.00;15.20;;;;;;;4.25;100.00;97825.83;110185;1241;70857;-65
2023/11/23 00:06:09;;;;;;;18.60;11.50;;;;;;;4.22;100.00;97824.21;110257;1242;69600;-65
2023/11/23 00:08:41;;;;;;;16.60;10.00;;;;;;;4.23;100.00;97823.16;110266;1242;68533;-65
2023/11/23 00:11:12;;;;;;;17.70;10.50;;;;;;;4.23;100.00;97820.03;110285;1242;59745;-65
2023/11/23 00:13:43;;;;;;;16.30;10.60;;;;;;;4.24;100.00;97827.40;110250;1241;59711;-65
2023/11/23 00:16:15;;;;;;;16.40;10.60;;;;;;;4.25;100.00;97824.97;110281;1242;71327;-66
2023/11/23 00:18:45;;;;;;;20.80;11.60;;;;;;;4.24;100.00;97821.05;110231;1242;69762;-65
2023/11/23 00:21:15;;;;;;;19.40;11.70;;;;;;;4.20;100.00;97825.16;110253;1242;69327;-65
2023/11/23 00:23:48;;;;;;;23.90;13.30;;;;;;;4.20;100.00;97825.85;110295;1242;59681;-65
2023/11/23 00:26:19;;;;;;;24.40;14.30;;;;;;;4.21;100.00;97830.82;110277;1242;59735;-65
2023/11/23 00:28:57;;;;;;;22.90;13.80;;;;;;;4.19;100.00;97827.48;110245;1241;71573;-65
2023/11/23 00:31:27;;;;;;;21.00;12.60;;;;;;;4.16;100.00;97826.20;110273;1240;69890;-66
2023/11/23 00:33:57;;;;;;;18.40;11.30;;;;;;;4.15;100.00;97831.07;110220;1240;68384;-66
2023/11/23 00:36:30;;;;;;;19.40;10.80;;;;;;;4.15;100.00;97831.95;110230;1242;60133;-66
2023/11/23 00:39:03;;;;;;;16.10;9.90;;;;;;;4.16;100.00;97834.29;110247;1241;59764;-66
2023/11/23 00:41:37;;;;;;;21.00;11.80;;;;;;;4.16;100.00;97830.33;110249;1241;70498;-65
2023/11/23 00:44:11;;;;;;;17.60;10.80;;;;;;;4.19;100.00;97831.44;110106;1241;69376;-66
2023/11/23 00:46:44;;;;;;;16.00;10.00;;;;;;;4.21;100.00;97830.84;110215;1240;69304;-66
2023/11/23 00:49:15;;;;;;;17.90;10.30;;;;;;;4.22;100.00;97830.94;110254;1242;59677;-66
2023/11/23 00:51:48;;;;;;;18.60;12.30;;;;;;;4.24;100.00;97830.70;110218;1242;59688;-65
2023/11/23 00:54:21;;;;;;;17.80;11.00;;;;;;;4.26;100.00;97827.70;110147;1245;71429;-66
2023/11/23 00:56:54;;;;;;;17.50;10.80;;;;;;;4.26;100.00;97827.70;110238;1241;69255;-65
2023/11/23 00:59:25;;;;;;;16.50;10.00;;;;;;;4.29;100.00;97826.16;110173;1241;69283;-65
2023/11/23 01:01:56;;;;;;;18.70;10.00;;;;;;;4.30;100.00;97829.75;110252;1242;59666;-65
2023/11/23 01:04:29;;;;;;;18.30;11.50;;;;;;;4.31;100.00;97827.66;110145;1240;60101;-65
2023/11/23 01:07:04;;;;;;;19.60;11.40;;;;;;;4.31;100.00;97826.79;110274;1242;71208;-65
2023/11/23 01:09:35;;;;;;;22.30;13.20;;;;;;;4.32;100.00;97832.26;110317;1242;68738;-65
2023/11/23 01:12:08;;;;;;;21.50;11.00;;;;;;;4.31;100.00;97831.09;110355;1242;69310;-65
2023/11/23 01:14:40;;;;;;;19.70;11.40;;;;;;;4.29;100.00;97826.34;110190;1243;59763;-65
2023/11/23 01:17:11;;;;;;;19.50;10.30;;;;;;;4.30;100.00;97825.63;110335;1241;59683;-67
2023/11/23 01:19:45;;;;;;;15.80;9.90;;;;;;;4.32;100.00;97821.58;110308;1242;69504;-65
2023/11/23 01:22:17;;;;;;;17.70;10.50;;;;;;;4.33;100.00;97815.33;110221;1245;69261;-67
2023/11/23 01:24:49;;;;;;;25.00;15.20;;;;;;;4.35;100.00;97815.58;110277;1242;69361;-66
2023/11/23 01:27:20;;;;;;;23.80;15.20;;;;;;;4.30;100.00;97807.66;110280;1241;59708;-65
2023/11/23 01:29:53;;;;;;;23.40;15.00;;;;;;;4.21;100.00;97804.77;110314;1240;59740;-66
2023/11/23 01:32:25;;;;;;;20.70;13.90;;;;;;;4.14;100.00;97804.72;110185;1241;71213;-65
2023/11/23 01:34:56;;;;;;;21.50;13.60;;;;;;;3.98;100.00;97806.54;110135;1241;69291;-66
2023/11/23 01:37:30;;;;;;;19.80;12.50;;;;;;;3.82;100.00;97809.79;110244;1241;68390;-66
2023/11/23 01:40:06;;;;;;;19.50;13.90;;;;;;;3.85;100.00;97811.89;110203;1241;59703;-66
2023/11/23 01:42:37;;;;;;;19.30;12.40;;;;;;;3.85;100.00;97810.55;110277;1242;59709;-66
2023/11/23 01:45:08;;;;;;;21.00;13.70;;;;;;;3.84;100.00;97810.40;110296;1242;71376;-66
2023/11/23 01:47:45;;;;;;;19.70;13.80;;;;;;;3.80;100.00;97809.00;110277;1241;67570;-66
2023/11/23 01:50:19;;;;;;;20.90;12.60;;;;;;;3.76;100.00;97810.89;110124;1245;69278;-65
2023/11/23 01:52:51;;;;;;;19.20;12.70;;;;;;;3.81;100.00;97807.92;110239;1241;59746;-64
2023/11/23 01:55:22;;;;;;;19.20;13.00;;;;;;;3.78;100.00;97805.79;110245;1241;60068;-65
2023/11/23 01:57:56;;;;;;;20.90;12.80;;;;;;;3.80;100.00;97809.70;110194;1242;71395;-64
2023/11/23 02:00:27;;;;;;;18.70;13.20;;;;;;;3.76;100.00;97813.13;110097;1244;69114;-65
2023/11/23 02:03:00;;;;;;;18.40;11.90;;;;;;;3.74;100.00;97812.33;110129;1241;69295;-65
2023/11/23 02:05:31;;;;;;;20.10;12.10;;;;;;;3.78;100.00;97815.80;110115;1241;59850;-65
2023/11/23 02:08:08;;;;;;;21.70;14.00;;;;;;;3.76;100.00;97818.44;110146;1244;59691;-65
2023/11/23 02:10:39;;;;;;;21.60;13.70;;;;;;;3.80;100.00;97816.74;110129;1241;71445;-65
2023/11/23 02:13:11;;;;;;;18.50;12.40;;;;;;;3.79;100.00;97819.73;110089;1245;68553;-65
2023/11/23 02:15:44;;;;;;;22.00;14.40;;;;;;;3.81;100.00;97823.79;110127;1244;69473;-65
2023/11/23 02:18:17;;;;;;;23.70;14.90;;;;;;;3.78;100.00;97824.58;110141;1241;59772;-65
2023/11/23 02:20:50;;;;;;;22.20;13.80;;;;;;;3.68;100.00;97820.33;110181;1241;59766;-65
2023/11/23 02:23:22;;;;;;;18.20;12.40;;;;;;;3.63;100.00;97813.80;110139;1241;70458;-65
2023/11/23 02:25:54;;;;;;;23.00;14.10;;;;;;;3.56;100.00;97814.05;110163;1244;69226;-65
2023/11/23 02:28:27;;;;;;;20.40;13.40;;;;;;;3.58;100.00;97820.20;110112;1242;69145;-65
2023/11/23 02:30:58;;;;;;;20.80;12.70;;;;;;;3.57;100.00;97826.09;110136;1243;59725;-65
2023/11/23 02:33:31;;;;;;;18.20;12.50;;;;;;;3.59;100.00;97825.84;110196;1243;59678;-65
2023/11/23 02:36:05;;;;;;;19.90;12.30;;;;;;;3.62;100.00;97825.55;110119;1241;71619;-65
2023/11/23 02:38:36;;;;;;;17.60;11.60;;;;;;;3.67;100.00;97830.90;110162;1241;68610;-65
2023/11/23 02:41:07;;;;;;;17.20;11.30;;;;;;;3.72;100.00;97832.05;110139;1244;69268;-65
2023/11/23 02:43:38;;;;;;;14.70;10.10;;;;;;;3.74;100.00;97833.05;110158;1244;59770;-65
2023/11/23 02:46:10;;;;;;;17.20;10.60;;;;;;;3.70;100.00;97834.03;110165;1244;59689;-65
2023/11/23 02:48:44;;;;;;;15.90;10.50;;;;;;;3.70;100.00;97826.81;110142;1241;70514;-64
2023/11/23 02:51:17;;;;;;;20.60;13.40;;;;;;;3.73;100.00;97827.23;110139;1244;68843;-65
2023/11/23 02:53:57;;;;;;;19.50;12.90;;;;;;;3.72;100.00;97830.04;110151;1241;67560;-65
2023/11/23 02:56:36;;;;;;;21.50;13.80;;;;;;;3.70;100.00;97829.94;110110;1243;59743;-65
2023/11/23 02:59:08;;;;;;;21.10;13.40;;;;;;;3.56;100.00;97830.78;110186;1240;59705;-65
2023/11/23 03:01:42;;;;;;;21.50;13.30;;;;;;;3.51;100.00;97831.48;110142;1241;70565;-65
2023/11/23 03:04:17;;;;;;;23.60;14.60;;;;;;;3.48;100.00;97820.73;110232;1241;68611;-65
2023/11/23 03:06:52;;;;;;;24.20;13.90;;;;;;;3.41;100.00;97818.93;110154;1240;69083;-65
2023/11/23 03:09:26;;;;;;;25.50;14.70;;;;;;;3.34;100.00;97825.05;110268;1240;59696;-65
2023/11/23 03:11:57;;;;;;;24.10;14.60;;;;;;;3.28;100.00;97835.43;110155;1244;59612;-66
2023/11/23 03:14:30;;;;;;;24.50;14.00;;;;;;;3.20;100.00;97837.13;110138;1244;71213;-66
2023/11/23 03:17:10;;;;;;;24.10;14.40;;;;;;;3.13;100.00;97838.25;110158;1242;69495;-66
2023/11/23 03:19:45;;;;;;;30.70;16.30;;;;;;;3.09;100.00;97841.15;110243;1242;68379;-66
2023/11/23 03:22:22;;;;;;;27.50;17.00;;;;;;;3.04;100.00;97847.35;110274;1242;59673;-67
2023/11/23 03:24:56;;;;;;;28.40;17.70;;;;;;;2.90;100.00;97849.23;110184;1240;60146;-66
2023/11/23 03:27:28;;;;;;;28.60;15.90;;;;;;;2.85;100.00;97852.14;110250;1242;71477;-66
2023/11/23 03:30:07;;;;;;;25.30;16.10;;;;;;;2.82;100.00;97857.08;110271;1241;68624;-65
2023/11/23 03:32:40;;;;;;;25.30;15.10;;;;;;;2.74;100.00;97859.93;110231;1240;69256;-66
2023/11/23 03:35:14;;;;;;;26.00;15.00;;;;;;;2.78;100.00;97861.70;110149;1241;59753;-65
2023/11/23 03:37:46;;;;;;;24.40;14.00;;;;;;;2.79;100.00;97863.04;110179;1242;59752;-66
2023/11/23 03:40:22;;;;;;;25.40;16.30;;;;;;;2.79;100.00;97861.48;110194;1242;70765;-66
2023/11/23 03:42:58;;;;;;;26.80;14.80;;;;;;;2.79;100.00;97858.54;110216;1241;68474;-66
2023/11/23 03:45:29;;;;;;;29.60;17.50;;;;;;;2.82;100.00;97854.14;110228;1242;69365;-65
2023/11/23 03:48:01;;;;;;;30.00;16.60;;;;;;;2.82;100.00;97851.23;110144;1249;59717;-66
2023/11/23 03:50:33;;;;;;;28.60;16.40;;;;;;;2.82;100.00;97854.50;110272;1242;59733;-65
2023/11/23 03:53:06;;;;;;;27.70;15.00;;;;;;;2.83;100.00;97857.22;110250;1241;71470;-66
2023/11/23 03:55:37;;;;;;;24.50;14.50;;;;;;;2.83;100.00;97862.02;110251;1241;69191;-65
2023/11/23 03:58:08;;;;;;;23.00;12.60;;;;;;;2.86;100.00;97867.44;110232;1241;69875;-66
2023/11/23 04:00:40;;;;;;;21.80;12.90;;;;;;;2.89;100.00;97863.03;110260;1241;59700;-66
2023/11/23 04:03:15;;;;;;;19.30;11.70;;;;;;;2.92;100.00;97859.33;110273;1241;59608;-66
2023/11/23 04:05:46;;;;;;;19.00;11.60;;;;;;;2.94;100.00;97858.17;110256;1241;70781;-67
2023/11/23 04:08:21;;;;;;;24.80;14.30;;;;;;;2.98;100.00;97859.96;110245;1241;69171;-66
2023/11/23 04:10:54;;;;;;;26.00;15.00;;;;;;;2.99;100.00;97863.52;110241;1242;68549;-66
2023/11/23 04:13:25;;;;;;;28.60;16.30;;;;;;;2.97;100.00;97868.94;110270;1242;59726;-67
2023/11/23 04:15:56;;;;;;;22.90;13.80;;;;;;;2.95;100.00;97870.73;110295;1242;59707;-66
2023/11/23 04:18:28;;;;;;;24.40;16.10;;;;;;;2.91;100.00;97881.56;110253;1241;71421;-67
2023/11/23 04:21:00;;;;;;;28.40;16.30;;;;;;;2.93;100.00;97880.10;110218;1242;67511;-65
2023/11/23 04:23:31;;;;;;;24.40;13.90;;;;;;;2.94;100.00;97882.64;110257;1242;69117;-66
2023/11/23 04:26:03;;;;;;;26.90;15.20;;;;;;;2.93;100.00;97888.37;110254;1242;59690;-66
2023/11/23 04:28:35;;;;;;;26.70;14.30;;;;;;;2.91;100.00;97893.25;110261;1242;59659;-66
2023/11/23 04:31:04;;;;;;;21.20;13.30;;;;;;;2.92;100.00;97895.13;110235;1240;70636;-66
2023/11/23 04:33:34;;;;;;;19.60;11.20;;;;;;;2.96;100.00;97891.39;110254;1242;69030;-66
2023/11/23 04:36:04;;;;;;;18.80;12.00;;;;;;;2.99;100.00;97892.46;110197;1242;68360;-66
2023/11/23 04:38:34;;;;;;;18.30;11.00;;;;;;;3.01;100.00;97894.61;110219;1241;59664;-67
2023/11/23 04:41:05;;;;;;;;;;;;;;;3.07;100.00;97887.87;110239;1242;59672;-64
2023/11/23 04:43:36;;;;;;;17.20;10.20;;;;;;;3.12;100.00;97881.84;110204;1242;70774;-65
2023/11/23 04:46:07;;;;;;;17.40;10.20;;;;;;;3.16;100.00;97876.38;110251;1242;69483;-66
2023/11/23 04:48:39;;;;;;;14.90;8.80;;;;;;;3.18;100.00;97874.39;110200;1241;69014;-65
2023/11/23 04:51:09;;;;;;;16.10;9.10;;;;;;;3.23;100.00;97877.50;110095;1244;59721;-65
2023/11/23 04:53:39;;;;;;;18.20;10.00;;;;;;;3.21;100.00;97875.86;110203;1242;59673;-65
2023/11/23 04:56:11;;;;;;;16.70;9.80;;;;;;;3.21;100.00;97868.95;110237;1240;71339;-65
2023/11/23 04:58:40;;;;;;;16.20;9.10;;;;;;;3.20;100.00;97874.52;110210;1242;69056;-65
2023/11/23 05:01:10;;;;;;;16.20;10.60;;;;;;;3.15;100.00;97869.67;110219;1242;69203;-65
2023/11/23 05:03:40;;;;;;;17.60;10.30;;;;;;;3.18;100.00;97874.05;110229;1240;59702;-65
2023/11/23 05:06:12;;;;;;;17.50;9.50;;;;;;;3.19;100.00;97870.73;110186;1242;59694;-65
2023/11/23 05:08:42;;;;;;;14.40;8.70;;;;;;;3.20;100.00;97874.85;110187;1242;71321;-65
2023/11/23 05:11:13;;;;;;;13.20;8.20;;;;;;;3.21;100.00;97876.00;110219;1242;69634;-65
2023/11/23 05:13:43;;;;;;;15.10;8.30;;;;;;;3.23;100.00;97874.74;110196;1241;69375;-65
2023/11/23 05:16:12;;;;;;;17.90;9.90;;;;;;;3.24;100.00;97876.09;110220;1241;60076;-65
2023/11/23 05:18:43;;;;;;;15.10;8.60;;;;;;;3.24;100.00;97875.73;110182;1240;59694;-65
2023/11/23 05:21:13;;;;;;;14.00;8.10;;;;;;;3.26;100.00;97884.12;110217;1244;70440;-65
2023/11/23 05:23:42;;;;;;;14.20;8.10;;;;;;;3.25;100.00;97881.20;110228;1242;68513;-66
2023/11/23 05:26:12;;;;;;;14.80;8.20;;;;;;;3.21;100.00;97882.22;110215;1242;69224;-65
2023/11/23 05:28:44;;;;;;;15.20;8.30;;;;;;;3.21;100.00;97882.75;110207;1241;59688;-66
2023/11/23 05:31:14;;;;;;;;;;;;;;;3.21;100.00;97880.98;110188;1241;59726;-65
2023/11/23 05:33:43;;;;;;;15.30;7.50;;;;;;;3.21;100.00;97877.90;110182;1241;71745;-66
2023/11/23 05:36:16;;;;;;;13.70;7.70;;;;;;;3.20;100.00;97883.14;110235;1242;69274;-66
2023/11/23 05:38:46;;;;;;;10.80;6.90;;;;;;;3.18;100.00;97883.18;110176;1242;68571;-65
2023/11/23 05:41:15;;;;;;;13.60;7.70;;;;;;;3.15;100.00;97886.23;110192;1241;59702;-65
2023/11/23 05:43:45;;;;;;;11.40;6.90;;;;;;;3.13;100.00;97883.55;110279;1242;59681;-66
2023/11/23 05:46:15;;;;;;;11.00;6.60;;;;;;;3.12;100.00;97876.00;110278;1240;70913;-65
2023/11/23 05:48:44;;;;;;;11.30;6.60;;;;;;;3.11;100.00;97869.65;110221;1242;70088;-66
2023/11/23 05:51:14;;;;;;;11.60;7.60;;;;;;;3.08;100.00;97873.20;110251;1242;69888;-66
2023/11/23 05:53:44;;;;;;;9.70;6.40;;;;;;;3.10;100.00;97873.30;110285;1242;59757;-65
2023/11/23 05:56:14;;;;;;;;;;;;;;;3.11;100.00;97872.59;110267;1240;59683;-66
2023/11/23 05:58:44;;;;;;;9.60;6.50;;;;;;;3.12;100.00;97866.00;110254;1241;69535;-66
2023/11/23 06:01:13;;;;;;;10.20;6.70;;;;;;;3.11;100.00;97862.09;110183;1242;69201;-66
2023/11/23 06:03:44;;;;;;;10.80;6.40;;;;;;;3.14;100.00;97861.47;110229;1244;69728;-65
2023/11/23 06:06:19;;;;;;;11.40;6.60;;;;;;;3.15;100.00;97864.00;110257;1242;59628;-65
2023/11/23 06:08:50;;;;;;;8.60;5.40;;;;;;;3.17;100.00;97864.77;110224;1240;59691;-65
2023/11/23 06:11:20;;;;;;;11.50;6.50;;;;;;;3.20;100.00;97868.13;110260;1242;71114;-65
2023/11/23 06:13:50;;;;;;;9.50;6.20;;;;;;;3.22;100.00;97866.86;110188;1245;69098;-65
2023/11/23 06:16:20;;;;;;;10.60;7.00;;;;;;;3.24;100.00;97869.35;110205;1242;69809;-65
2023/11/23 06:18:49;;;;;;;11.30;7.20;;;;;;;3.25;100.00;97873.80;110176;1242;59740;-66
2023/11/23 06:21:21;;;;;;;11.00;7.10;;;;;;;3.25;100.00;97875.87;110187;1244;59656;-66
2023/11/23 06:23:51;;;;;;;13.20;8.10;;;;;;;3.24;100.00;97880.88;110242;1241;71240;-66
2023/11/23 06:26:20;;;;;;;11.90;7.10;;;;;;;3.20;100.00;97884.34;110094;1244;69258;-66
2023/11/23 06:28:49;;;;;;;12.30;8.20;;;;;;;3.21;100.00;97886.89;110176;1241;69823;-66
2023/11/23 06:31:19;;;;;;;;;;;;;;;3.21;100.00;97881.03;110256;1242;59676;-65
2023/11/23 06:33:49;;;;;;;11.10;7.00;;;;;;;3.16;100.00;97885.33;110206;1242;59740;-65
2023/11/23 06:36:20;;;;;;;11.70;7.60;;;;;;;3.15;100.00;97881.58;110238;1242;70720;-66
2023/11/23 06:38:50;;;;;;;10.10;7.50;;;;;;;3.11;100.00;97882.21;110219;1242;69077;-67
2023/11/23 06:41:21;;;;;;;11.10;7.30;;;;;;;3.04;100.00;97884.52;110256;1242;69176;-66
2023/11/23 06:43:52;;;;;;;12.10;8.10;;;;;;;3.05;100.00;97879.16;110231;1242;59785;-66
2023/11/23 06:46:22;;;;;;;11.80;7.50;;;;;;;3.09;100.00;97883.34;110238;1242;59644;-66
2023/11/23 06:48:51;;;;;;;12.50;6.90;;;;;;;3.13;100.00;97883.36;110197;1242;69875;-65
2023/11/23 06:51:21;;;;;;;13.40;7.30;;;;;;;3.16;100.00;97886.02;110212;1242;69720;-64
2023/11/23 06:53:51;;;;;;;10.30;7.20;;;;;;;3.18;100.00;97887.47;110194;1242;69292;-64
2023/11/23 06:56:21;;;;;;;11.40;7.70;;;;;;;3.22;100.00;97887.70;110236;1241;59746;-64
2023/11/23 06:58:51;;;;;;;11.80;7.00;;;;;;;3.22;100.00;97890.26;110168;1240;59661;-65
2023/11/23 07:01:21;;;;;;;9.50;5.90;;;;;;;3.26;100.00;97887.73;110248;1240;70237;-66
2023/11/23 07:03:52;;;;;;;10.30;6.40;;;;;;;3.29;100.00;97887.26;110210;1242;68996;-66
2023/11/23 07:06:24;;;;;;;8.60;6.00;;;;;;;3.32;100.00;97891.11;110148;1240;68437;-66
2023/11/23 07:08:53;;;;;;;10.10;6.80;;;;;;;3.35;100.00;97892.20;110203;1240;59702;-66
2023/11/23 07:11:23;;;;;;;8.60;6.00;;;;;;;3.39;100.00;97889.33;110165;1242;59682;-66
2023/11/23 07:13:53;;;;;;;9.00;6.00;;;;;;;3.36;100.00;97893.55;110203;1242;71933;-66
2023/11/23 07:16:22;;;;;;;10.00;6.60;;;;;;;3.34;100.00;97890.18;110212;1242;68895;-66
2023/11/23 07:18:52;;;;;;;10.40;5.70;;;;;;;3.36;100.00;97887.38;110200;1241;69947;-67
2023/11/23 07:21:21;;;;;;;11.00;6.90;;;;;;;3.39;100.00;97885.68;110207;1241;59754;-66
2023/11/23 07:23:51;;;;;;;10.50;6.50;;;;;;;3.36;100.00;97877.71;110167;1242;59776;-67
2023/11/23 07:26:21;;;;;;;9.00;5.80;;;;;;;3.39;100.00;97875.54;110205;1240;70699;-66
2023/11/23 07:28:53;;;;;;;11.90;6.20;;;;;;;3.39;100.00;97867.27;110208;1244;69222;-66
2023/11/23 07:31:23;;;;;;;9.20;6.70;;;;;;;3.43;100.00;97863.16;110168;1243;69189;-66
2023/11/23 07:33:52;;;;;;;9.30;6.10;;;;;;;3.47;100.00;97864.91;110199;1241;59699;-67
2023/11/23 07:36:24;;;;;;;8.10;5.30;;;;;;;3.48;100.00;97865.36;110259;1242;59689;-66
2023/11/23 07:38:53;;;;;;;7.30;5.80;;;;;;;3.53;100.00;97860.89;110190;1242;70668;-66
2023/11/23 07:41:23;;;;;;;9.40;6.70;;;;;;;3.55;100.00;97859.60;110236;1242;69467;-66
2023/11/23 07:43:52;;;;;;;8.70;5.80;;;;;;;3.62;100.00;97858.16;110175;1241;69117;-66
2023/11/23 07:46:22;;;;;;;7.60;5.70;;;;;;;3.66;100.00;97859.21;110238;1242;59755;-66
2023/11/23 07:48:53;;;;;;;8.80;5.80;;;;;;;3.70;100.00;97866.10;110198;1242;59640;-66
2023/11/23 07:51:22;;;;;;;8.00;5.80;;;;;;;3.72;100.00;97868.96;110190;1241;71352;-66
2023/11/23 07:53:52;;;;;;;9.50;5.90;;;;;;;3.74;100.00;97868.35;110238;1243;68890;-66
2023/11/23 07:56:22;;;;;;;8.10;5.90;;;;;;;3.74;100.00;97867.86;110095;1241;68519;-66
2023/11/23 07:58:52;;;;;;;9.10;6.90;;;;;;;3.74;100.00;97870.44;110234;1242;59761;-66
2023/11/23 08:01:22;;;;;;;9.90;6.00;;;;;;;3.77;100.00;97871.02;110277;1241;59696;-66
2023/11/23 08:03:51;;;;;;;9.60;6.20;;;;;;;3.80;100.00;97875.38;110197;1241;72067;-66
2023/11/23 08:06:21;;;;;;;9.70;6.40;;;;;;;3.80;100.00;97875.38;110245;1242;69816;-66
2023/11/23 08:08:51;;;;;;;8.40;6.60;;;;;;;3.74;100.00;97875.77;110202;1241;69306;-66
2023/11/23 08:11:21;;;;;;;9.90;6.70;;;;;;;3.67;100.00;97872.24;110199;1241;59690;-66
2023/11/23 08:13:54;;;;;;;9.00;6.20;;;;;;;3.69;100.00;97868.89;110260;1242;59742;-66
2023/11/23 08:16:25;;;;;;;7.30;5.00;;;;;;;3.69;100.00;97866.48;110209;1242;70865;-67
2023/11/23 08:18:55;;;;;;;7.50;5.00;;;;;;;3.82;100.00;97865.28;110192;1242;69257;-66
2023/11/23 08:21:25;;;;;;;8.20;6.10;;;;;;;3.96;100.00;97868.54;110177;1240;68754;-66
2023/11/23 08:23:54;;;;;;;9.30;5.40;;;;;;;4.06;100.00;97861.92;110210;1242;59741;-67
2023/11/23 08:26:25;;;;;;;7.80;5.50;;;;;;;4.24;100.00;97865.05;110178;1241;59714;-66
2023/11/23 08:28:54;;;;;;;;;;;;;;;4.44;100.00;97867.16;110257;1241;71170;-67
2023/11/23 08:31:28;;;;;;;7.50;5.40;;;;;;;4.65;100.00;97864.54;110183;1242;69213;-67
2023/11/23 08:33:57;;;;;;;7.80;5.10;;;;;;;4.97;100.00;97860.28;110177;1241;69260;-67
2023/11/23 08:36:26;;;;;;;8.80;6.30;;;;;;;5.18;100.00;97857.78;110165;1241;59731;-67
2023/11/23 08:38:55;;;;;;;6.80;6.00;;;;;;;5.36;100.00;97854.59;110202;1242;59748;-67
2023/11/23 08:41:26;;;;;;;;;;;;;;;5.33;99.68;97852.81;110195;1242;72053;-67
2023/11/23 08:43:55;;;;;;;9.70;5.10;;;;;;;5.29;99.71;97858.16;110178;1242;69401;-67
2023/11/23 08:46:25;;;;;;;6.90;4.90;;;;;;;5.29;100.00;97864.41;110164;1247;69307;-67
2023/11/23 08:48:54;;;;;;;7.70;5.20;;;;;;;5.24;100.00;97866.17;110183;1242;59701;-66
2023/11/23 08:51:24;;;;;;;8.30;5.70;;;;;;;5.13;100.00;97856.11;110211;1242;59676;-66
2023/11/23 08:53:54;;;;;;;7.90;5.30;;;;;;;5.05;100.00;97857.52;110168;1242;70622;-66
2023/11/23 08:56:24;;;;;;;7.80;5.30;;;;;;;4.97;99.95;97854.38;110246;1242;69226;-66
2023/11/23 08:58:54;;;;;;;;;;;;;;;4.90;100.00;97847.63;110178;1242;69238;-67
2023/11/23 09:01:26;;;;;;;7.70;5.30;;;;;;;4.79;100.00;97845.33;110204;1240;59772;-66
2023/11/23 09:03:56;;;;;;;7.20;4.90;;;;;;;4.81;100.00;97834.36;110220;1242;59653;-67
2023/11/23 09:06:26;;;;;;;6.90;5.40;;;;;;;4.84;100.00;97824.88;110162;1242;71564;-67
2023/11/23 09:08:56;;;;;;;8.40;5.60;;;;;;;4.91;100.00;97816.64;110176;1242;69214;-67
2023/11/23 09:11:29;;;;;;;8.30;5.80;;;;;;;4.97;99.73;97808.45;110185;1240;69137;-67
2023/11/23 09:13:58;;;;;;;7.10;5.50;;;;;;;5.12;100.00;97801.73;110149;1242;59766;-66
2023/11/23 09:16:28;;;;;;;8.10;5.60;;;;;;;5.25;100.00;97803.92;110261;1242;59672;-67
2023/11/23 09:18:57;;;;;;;11.10;6.70;;;;;;;5.21;99.69;97802.35;110212;1241;71938;-67
2023/11/23 09:21:28;;;;;;;8.30;6.70;;;;;;;5.29;100.00;97798.21;110228;1242;67622;-67
2023/11/23 09:23:57;;;;;;;;;;;;;;;5.22;99.70;97795.42;110182;1241;69247;-66
2023/11/23 09:26:28;;;;;;;7.70;5.80;;;;;;;5.16;99.76;97794.50;110130;1240;59725;-66
2023/11/23 09:28:58;;;;;;;9.70;5.70;;;;;;;5.11;100.00;97791.42;110172;1242;59701;-66
2023/11/23 09:31:31;;;;;;;7.70;5.80;;;;;;;5.09;99.87;97794.41;110211;1241;70562;-66
2023/11/23 09:34:01;;;;;;;7.80;6.00;;;;;;;5.07;99.57;97791.05;110199;1242;69849;-66
2023/11/23 09:36:32;;;;;;;8.30;5.60;;;;;;;5.05;99.73;97783.53;110182;1240;67556;-67
2023/11/23 09:39:03;;;;;;;8.40;6.30;;;;;;;5.03;99.54;97776.40;110230;1242;59754;-67
2023/11/23 09:41:38;;;;;;;7.00;5.20;;;;;;;5.00;98.91;97769.46;110294;1240;59688;-66
2023/11/23 09:44:08;;;;;;;9.00;6.30;;;;;;;4.99;100.00;97770.89;110184;1240;71939;-66
2023/11/23 09:46:38;;;;;;;9.60;6.80;;;;;;;4.89;99.70;97765.79;110193;1242;69823;-67
2023/11/23 09:49:11;;;;;;;7.70;6.10;;;;;;;4.87;100.00;97762.61;110178;1245;69303;-67
2023/11/23 09:51:41;;;;;;;8.40;5.90;;;;;;;4.73;98.85;97762.84;110202;1240;59709;-66
2023/11/23 09:54:16;;;;;;;7.90;5.60;;;;;;;4.63;98.51;97756.73;110222;1249;59685;-66
2023/11/23 09:56:47;;;;;;;6.80;5.40;;;;;;;4.64;99.19;97753.59;110241;1240;71422;-67
2023/11/23 09:59:16;;;;;;;7.30;5.30;;;;;;;4.69;98.50;97749.41;110184;1240;69324;-67
2023/11/23 10:01:48;;;;;;;11.90;6.40;;;;;;;4.77;99.88;97742.83;110171;1241;68219;-66
2023/11/23 10:04:17;;;;;;;8.90;6.30;;;;;;;4.79;99.56;97743.09;110180;1242;59689;-67
2023/11/23 10:06:46;;;;;;;8.50;6.20;;;;;;;4.85;99.48;97738.16;110156;1241;59666;-65
2023/11/23 10:09:17;;;;;;;8.30;6.00;;;;;;;4.90;99.03;97732.23;110195;1241;71395;-67
2023/11/23 10:11:47;;;;;;;;;;;;;;;4.94;98.60;97725.34;110206;1242;68485;-65
2023/11/23 10:14:16;;;;;;;8.50;5.60;;;;;;;4.95;97.58;97717.50;110182;1241;69110;-65
2023/11/23 10:16:46;;;;;;;8.70;6.00;;;;;;;5.01;97.55;97712.06;110212;1242;59744;-65
2023/11/23 10:19:23;;;;;;;9.30;5.90;;;;;;;4.99;94.76;97711.65;110246;1242;59707;-65
2023/11/23 10:22:03;;;;;;;7.20;5.40;;;;;;;5.21;97.19;97709.43;110210;1246;71909;-65
2023/11/23 10:24:34;;;;;;;9.10;6.60;;;;;;;5.33;95.31;97702.97;110221;1241;69301;-65
2023/11/23 10:27:03;;;;;;;8.50;6.00;;;;;;;5.43;96.00;97696.95;110192;1241;69273;-65
2023/11/23 10:29:34;;;;;;;8.60;6.00;;;;;;;5.53;93.53;97691.46;110217;1242;59750;-65
2023/11/23 10:32:06;;;;;;;10.00;6.60;;;;;;;5.74;95.28;97693.23;110213;1241;59725;-66
2023/11/23 10:34:41;;;;;;;9.70;6.20;;;;;;;5.65;92.64;97693.13;110194;1242;70538;-66
2023/11/23 10:37:16;;;;;;;9.90;6.10;;;;;;;6.03;92.28;97687.32;110201;1242;68324;-65
2023/11/23 10:39:45;;;;;;;10.60;6.80;;;;;;;6.44;89.82;97685.94;110208;1241;69881;-66
2023/11/23 10:42:15;;;;;;;8.80;6.40;;;;;;;6.73;91.40;97688.75;110220;1242;60124;-66
2023/11/23 10:44:44;;;;;;;9.10;6.20;;;;;;;6.82;90.06;97684.12;110125;1244;59685;-66
2023/11/23 10:47:15;;;;;;;7.80;6.20;;;;;;;6.93;87.59;97677.26;110246;1242;71400;-66
2023/11/23 10:49:48;;;;;;;8.10;6.10;;;;;;;6.80;86.15;97674.52;110244;1242;69361;-65
2023/11/23 10:52:20;;;;;;;8.90;7.00;;;;;;;7.14;86.94;97672.83;110220;1242;69116;-65
2023/11/23 10:54:49;;;;;;;9.30;7.10;;;;;;;7.64;84.08;97668.65;110206;1241;59729;-65
2023/11/23 10:57:19;;;;;;;9.10;7.20;;;;;;;8.08;81.21;97665.95;110200;1241;59738;-65
2023/11/23 10:59:52;;;;;;;9.90;7.50;;;;;;;8.49;77.76;97658.66;109733;1241;703886;-66
2023/11/23 11:02:24;;;;;;;9.10;6.90;;;;;;;8.41;76.46;97659.12;110201;1240;68609;-66
2023/11/23 11:04:58;;;;;;;9.10;7.20;;;;;;;8.43;74.94;97655.36;110150;1243;69330;-66
2023/11/23 11:07:28;;;;;;;10.80;8.00;;;;;;;8.06;75.46;97649.55;110175;1240;59738;-66
2023/11/23 11:09:59;;;;;;;;;;;;;;;8.19;75.89;97639.29;110221;1242;59756;-65
2023/11/23 11:12:37;;;;;;;;;;;;;;;7.67;74.70;97634.99;110227;1242;72163;-65
2023/11/23 11:15:08;;;;;;;8.90;7.40;;;;;;;7.70;75.34;97622.71;110198;1242;68357;-65
2023/11/23 11:17:39;;;;;;;10.80;7.60;;;;;;;7.77;76.23;97621.11;110146;1242;68596;-65
2023/11/23 11:20:13;;;;;;;13.60;10.20;;;;;;;7.94;75.63;97616.77;110186;1241;59666;-65
2023/11/23 11:22:43;;;;;;;13.60;9.70;;;;;;;8.02;73.76;97603.79;110224;1242;59683;-65
2023/11/23 11:25:14;;;;;;;13.00;9.30;;;;;;;8.07;73.84;97605.59;110100;1245;71987;-65
2023/11/23 11:27:42;;;;;;;15.10;10.30;;;;;;;7.93;73.19;97608.16;110199;1242;69797;-65
2023/11/23 11:30:13;;;;;;;15.60;10.60;;;;;;;7.35;73.86;97603.17;110159;1241;69763;-66
2023/11/23 11:32:44;;;;;;;15.80;10.40;;;;;;;7.29;75.94;97598.33;110217;1242;59712;-67
2023/11/23 11:35:18;;;;;;;12.00;8.80;;;;;;;7.52;76.07;97584.73;110148;1245;59696;-67
2023/11/23 11:37:50;;;;;;;12.50;7.90;;;;;;;7.93;74.63;97586.31;110226;1241;70661;-67
2023/11/23 11:40:20;;;;;;;13.80;9.90;;;;;;;8.26;71.25;97590.23;110192;1242;68542;-65